Time;durP1;ratioP1;P1;durP2;ratioP2;P2;SDS_P1;SDS_P2;PMS_P1;PMS_P2;Temp;Humidity;BMP_temperature;BMP_pressure;BME280_temperature;BME280_humidity;BME280_pressure;Samples;Min_cycle;Max_cycle;Signal;HPM_P1;HPM_P2
2023/12/02 00:00:56;;;;;;;8.95;7.82;;;1.50;99.90;;;1.42;83.37;99484.94;4889262;28;25047;-69
2023/12/02 00:03:18;;;;;;;13.23;8.00;;;1.50;99.90;;;1.46;82.44;99470.16;4891355;28;24445;-69
2023/12/02 00:05:40;;;;;;;9.23;7.50;;;1.50;99.90;;;1.52;82.65;99462.94;4889083;28;24450;-70
2023/12/02 00:08:02;;;;;;;10.50;8.10;;;1.60;99.90;;;1.46;83.12;99463.28;4886811;28;24453;-69
2023/12/02 00:10:24;;;;;;;10.82;7.95;;;1.60;99.90;;;1.49;82.79;99475.97;4876389;28;25066;-70
2023/12/02 00:12:45;;;;;;;9.25;8.25;;;1.60;99.90;;;1.43;82.66;99468.56;4876144;28;24542;-68
2023/12/02 00:15:08;;;;;;;11.25;7.60;;;1.50;99.90;;;1.32;82.57;99464.94;4888981;28;24449;-67
2023/12/02 00:17:30;;;;;;;11.75;8.73;;;1.50;99.90;;;1.29;82.52;99465.06;4888130;28;24973;-67
2023/12/02 00:19:52;;;;;;;10.07;7.70;;;1.40;99.90;;;1.28;83.08;99464.25;4871977;28;24426;-69
2023/12/02 00:22:14;;;;;;;10.90;7.82;;;1.40;99.90;;;1.38;83.24;99470.59;4881823;28;24522;-68
2023/12/02 00:24:36;;;;;;;10.77;7.40;;;1.40;99.90;;;1.38;83.67;99468.00;4881849;28;24637;-68
2023/12/02 00:26:58;;;;;;;10.70;6.45;;;1.40;99.90;;;1.35;83.37;99470.72;4893385;28;24469;-69
2023/12/02 00:29:19;;;;;;;10.90;8.15;;;1.40;99.90;;;1.28;84.49;99469.38;4889093;28;24453;-70
2023/12/02 00:31:42;;;;;;;9.50;6.75;;;1.40;99.90;;;1.25;85.20;99464.41;4892374;28;24459;-69
2023/12/02 00:34:04;;;;;;;9.85;8.63;;;1.40;99.90;;;1.10;84.79;99465.22;4891053;28;24477;-70
2023/12/02 00:36:26;;;;;;;10.57;8.15;;;1.30;99.90;;;1.20;84.90;99470.69;4891505;28;24517;-68
2023/12/02 00:38:48;;;;;;;11.50;7.97;;;1.30;99.90;;;1.18;85.23;99472.50;4890481;28;24524;-69
2023/12/02 00:41:10;;;;;;;10.68;8.20;;;1.30;99.90;;;1.05;85.92;99477.47;4893764;28;24473;-69
2023/12/02 00:43:32;;;;;;;11.25;8.23;;;1.20;99.90;;;1.13;85.58;99459.91;4882293;28;24446;-68
2023/12/02 00:45:54;;;;;;;9.68;7.10;;;1.20;99.90;;;1.11;85.06;99472.00;4885136;28;24443;-69
2023/12/02 00:48:16;;;;;;;12.70;7.40;;;1.20;99.90;;;1.13;85.02;99477.06;4891042;28;24538;-69
2023/12/02 00:50:38;;;;;;;10.30;8.25;;;1.20;99.90;;;1.16;84.41;99476.91;4886307;28;24554;-69
2023/12/02 00:53:00;;;;;;;9.97;7.83;;;1.20;99.90;;;1.10;84.79;99475.50;4889476;28;25080;-68
2023/12/02 00:55:23;;;;;;;10.88;7.88;;;1.20;99.90;;;0.98;84.54;99473.53;4890643;28;24438;-64
2023/12/02 00:57:45;;;;;;;10.38;8.25;;;1.20;99.90;;;0.96;85.23;99470.22;4891598;28;24518;-67
2023/12/02 01:00:08;;;;;;;11.00;8.47;;;1.10;99.90;;;0.95;85.02;99475.44;4884854;28;24433;-68
2023/12/02 01:02:30;;;;;;;10.40;8.00;;;1.10;99.90;;;0.98;85.03;99468.41;4889329;28;24482;-69
2023/12/02 01:04:52;;;;;;;13.38;8.10;;;1.10;99.90;;;1.00;85.15;99474.28;4894898;28;24618;-69
2023/12/02 01:07:14;;;;;;;10.50;7.82;;;1.10;99.90;;;1.06;85.56;99478.28;4895441;28;24466;-70
2023/12/02 01:09:36;;;;;;;10.38;8.20;;;1.10;99.90;;;1.06;85.72;99473.16;4883967;28;24909;-67
2023/12/02 01:11:58;;;;;;;9.60;7.55;;;1.10;99.90;;;0.99;85.33;99474.38;4879688;28;20766;-70
2023/12/02 01:14:20;;;;;;;10.23;7.85;;;1.10;99.90;;;1.03;85.19;99479.28;4887726;28;24443;-70
2023/12/02 01:16:42;;;;;;;12.70;8.38;;;1.10;99.90;;;0.98;85.09;99488.13;4890344;28;24446;-68
2023/12/02 01:19:04;;;;;;;10.57;8.18;;;1.10;99.90;;;0.95;85.11;99499.38;4888578;28;24968;-67
2023/12/02 01:21:26;;;;;;;10.85;8.13;;;1.10;99.90;;;0.82;85.31;99500.91;4886332;28;24514;-70
2023/12/02 01:23:48;;;;;;;10.98;7.80;;;1.00;99.90;;;0.81;85.67;99506.94;4892954;28;24443;-69
2023/12/02 01:26:10;;;;;;;9.85;8.23;;;1.00;99.90;;;0.76;85.62;99490.94;4894832;28;24462;-70
2023/12/02 01:28:32;;;;;;;10.85;7.00;;;0.90;99.90;;;0.82;85.79;99498.34;4895135;28;24492;-70
2023/12/02 01:30:54;;;;;;;10.75;7.57;;;0.90;99.90;;;0.76;85.27;99501.22;4877833;28;25072;-69
2023/12/02 01:33:16;;;;;;;10.60;7.80;;;0.90;99.90;;;0.79;86.45;99506.19;4884941;28;24604;-69
2023/12/02 01:35:38;;;;;;;10.45;7.10;;;0.90;99.90;;;0.81;86.34;99509.50;4892727;28;24450;-68
2023/12/02 01:37:59;;;;;;;9.32;6.40;;;0.90;99.90;;;0.72;87.18;99522.81;4895265;28;25046;-69
2023/12/02 01:40:21;;;;;;;9.88;7.10;;;0.80;99.90;;;0.79;87.36;99511.31;4891219;28;24534;-69
2023/12/02 01:42:43;;;;;;;8.63;7.28;;;0.90;99.90;;;0.78;87.21;99517.38;4893309;28;20769;-66
2023/12/02 01:45:06;;;;;;;9.45;7.30;;;0.90;99.90;;;0.63;86.54;99533.53;4888116;28;24512;-66
2023/12/02 01:47:28;;;;;;;7.53;6.55;;;0.80;99.90;;;0.54;86.98;99534.81;4883372;28;24453;-70
2023/12/02 01:49:51;;;;;;;7.85;7.05;;;0.70;99.90;;;0.46;86.45;99529.22;4893706;28;24437;-71
2023/12/02 01:52:13;;;;;;;9.40;7.60;;;0.60;99.90;;;0.50;86.45;99530.72;4892241;28;25057;-67
2023/12/02 01:54:35;;;;;;;8.00;7.05;;;0.60;99.90;;;0.41;85.72;99532.91;4895104;28;24447;-67
2023/12/02 01:56:57;;;;;;;8.05;6.30;;;0.60;99.90;;;0.40;86.20;99549.22;4874798;28;26865;-67
2023/12/02 01:59:19;;;;;;;9.27;6.00;;;0.60;99.90;;;0.50;86.13;99542.72;4892583;28;24529;-68
2023/12/02 02:01:41;;;;;;;7.65;6.85;;;0.60;99.90;;;0.53;85.41;99540.03;4892086;28;24446;-68
2023/12/02 02:04:03;;;;;;;9.02;5.80;;;0.60;99.90;;;0.44;84.70;99546.44;4892001;28;24435;-65
2023/12/02 02:06:25;;;;;;;8.73;6.03;;;0.60;99.90;;;0.47;85.36;99524.94;4894303;28;24530;-68
2023/12/02 02:08:47;;;;;;;7.10;4.88;;;0.60;99.90;;;0.41;84.61;99530.31;4894516;28;24427;-69
2023/12/02 02:11:09;;;;;;;7.45;5.55;;;0.60;99.90;;;0.43;84.27;99538.78;4890742;28;24888;-69
2023/12/02 02:13:31;;;;;;;6.95;6.20;;;0.60;99.90;;;0.38;84.71;99535.63;4894214;28;24542;-68
2023/12/02 02:15:54;;;;;;;8.88;6.65;;;0.50;99.90;;;0.28;84.66;99544.66;4877974;28;24451;-68
2023/12/02 02:18:16;;;;;;;7.40;6.22;;;0.50;99.90;;;0.36;85.04;99550.25;4884448;28;24439;-68
2023/12/02 02:20:38;;;;;;;7.65;6.95;;;0.50;99.90;;;0.39;84.47;99548.38;4892929;28;24550;-68
2023/12/02 02:23:00;;;;;;;7.60;6.00;;;0.50;99.90;;;0.50;83.99;99551.25;4892535;28;25068;-69
2023/12/02 02:25:25;;;;;;;6.70;6.07;;;0.60;99.90;;;0.53;83.65;99553.66;4894450;28;20773;-69
2023/12/02 02:27:46;;;;;;;7.55;5.60;;;0.60;99.90;;;0.49;83.99;99548.78;4892242;28;24902;-68
2023/12/02 02:30:09;;;;;;;6.40;5.80;;;0.60;99.90;;;0.47;82.91;99558.28;4893296;28;24506;-69
2023/12/02 02:32:30;;;;;;;5.70;5.00;;;0.60;99.90;;;0.43;82.70;99554.19;4891959;28;24544;-69
2023/12/02 02:34:52;;;;;;;7.18;5.80;;;0.60;99.90;;;0.39;83.21;99557.81;4892083;28;24446;-68
2023/12/02 02:37:14;;;;;;;6.15;5.50;;;0.50;99.90;;;0.45;82.74;99560.91;4894047;28;24528;-68
2023/12/02 02:39:36;;;;;;;5.28;4.78;;;0.60;99.90;;;0.45;82.05;99555.78;4891036;28;24537;-68
2023/12/02 02:41:58;;;;;;;5.60;5.10;;;0.60;99.90;;;0.50;82.00;99561.53;4893036;28;24442;-68
2023/12/02 02:44:20;;;;;;;5.32;4.00;;;0.60;99.90;;;0.46;82.20;99567.72;4892911;28;24426;-69
2023/12/02 02:46:42;;;;;;;5.87;3.90;;;0.50;99.90;;;0.48;82.25;99565.06;4892874;28;24488;-68
2023/12/02 02:49:04;;;;;;;5.45;4.63;;;0.60;99.90;;;0.49;81.96;99564.19;4893969;28;24484;-69
2023/12/02 02:51:26;;;;;;;5.20;4.70;;;0.60;99.90;;;0.51;81.57;99564.94;4889809;28;24449;-68
2023/12/02 02:53:48;;;;;;;3.80;3.30;;;0.60;99.90;;;0.56;80.64;99573.22;4893405;28;24995;-67
2023/12/02 02:56:11;;;;;;;5.65;4.45;;;0.60;99.90;;;0.57;80.72;99574.91;4891919;28;24438;-68
2023/12/02 02:58:36;;;;;;;3.30;3.00;;;0.60;99.90;;;0.54;80.00;99575.88;4894689;28;24462;-68
2023/12/02 03:00:58;;;;;;;4.15;3.75;;;0.70;99.90;;;0.57;80.59;99574.91;4891067;28;24434;-67
2023/12/02 03:03:20;;;;;;;4.40;4.00;;;0.60;99.90;;;0.58;80.15;99574.81;4895016;28;24513;-68
2023/12/02 03:05:42;;;;;;;4.68;4.10;;;0.70;99.90;;;0.55;80.16;99571.56;4881122;28;24449;-68
2023/12/02 03:08:04;;;;;;;4.43;3.90;;;0.70;99.90;;;0.49;79.90;99566.75;4879719;28;24431;-67
2023/12/02 03:10:26;;;;;;;4.43;3.70;;;0.60;99.90;;;0.50;79.86;99576.09;4872922;28;24441;-68
2023/12/02 03:12:48;;;;;;;4.30;3.90;;;0.60;99.90;;;0.47;79.84;99569.34;4873763;28;25039;-67
2023/12/02 03:15:10;;;;;;;4.20;3.80;;;0.60;99.90;;;0.47;80.43;99566.78;4891352;28;24473;-66
2023/12/02 03:17:32;;;;;;;4.20;3.80;;;0.60;99.90;;;0.53;80.44;99584.47;4890963;28;24423;-67
2023/12/02 03:19:54;;;;;;;3.97;3.60;;;0.60;99.90;;;0.54;80.31;99583.56;4874876;28;24431;-67
2023/12/02 03:22:16;;;;;;;4.40;4.00;;;0.60;99.90;;;0.55;80.17;99576.72;4881568;28;24446;-66
2023/12/02 03:24:38;;;;;;;4.80;4.40;;;0.70;99.90;;;0.49;80.58;99572.69;4878280;28;24485;-68
2023/12/02 03:27:00;;;;;;;3.10;2.80;;;0.60;99.90;;;0.57;80.26;99582.59;4875147;28;24435;-67
2023/12/02 03:29:22;;;;;;;3.95;3.65;;;0.60;99.90;;;0.45;80.41;99572.91;4882975;28;24443;-68
2023/12/02 03:31:44;;;;;;;4.37;3.70;;;0.60;99.90;;;0.43;80.14;99569.56;4887209;28;24564;-68
2023/12/02 03:34:06;;;;;;;4.13;3.83;;;0.60;99.90;;;0.42;80.32;99573.91;4883257;28;24466;-69
2023/12/02 03:36:28;;;;;;;4.10;3.80;;;0.60;99.90;;;0.30;80.84;99578.78;4891681;28;24987;-69
2023/12/02 03:38:50;;;;;;;4.90;4.00;;;0.50;99.90;;;0.28;81.10;99576.25;4890982;28;24520;-69
2023/12/02 03:41:12;;;;;;;4.13;3.72;;;0.40;99.90;;;0.37;80.95;99575.00;4890376;28;24442;-69
2023/12/02 03:43:35;;;;;;;4.30;3.90;;;0.50;99.90;;;0.26;80.26;99561.84;4885757;28;24475;-69
2023/12/02 03:46:15;;;;;;;4.80;4.40;;;0.40;99.90;;;0.18;80.73;99561.38;4888912;28;24547;-69
2023/12/02 03:48:37;;;;;;;3.60;3.30;;;0.40;99.90;;;0.24;80.59;99573.91;4876187;28;24534;-68
2023/12/02 03:50:59;;;;;;;4.40;4.10;;;0.40;99.90;;;0.19;80.41;99574.16;4886130;28;24434;-67
2023/12/02 03:53:21;;;;;;;4.32;3.78;;;0.40;99.90;;;0.20;80.50;99577.53;4887136;28;24447;-69
2023/12/02 03:55:43;;;;;;;4.10;3.70;;;0.30;99.90;;;0.14;81.48;99580.38;4880613;28;24515;-68
2023/12/02 03:58:05;;;;;;;4.60;4.10;;;0.30;99.90;;;0.11;81.52;99575.41;4886043;28;25293;-68
2023/12/02 04:00:27;;;;;;;4.57;4.17;;;0.30;99.90;;;0.10;81.33;99587.38;4892082;28;24423;-68
2023/12/02 04:02:49;;;;;;;3.53;3.22;;;0.30;99.90;;;0.17;81.11;99593.88;4890689;28;25018;-68
2023/12/02 04:05:14;;;;;;;3.75;3.35;;;0.30;99.90;;;0.18;81.35;99603.25;4893530;28;24969;-69
2023/12/02 04:07:37;;;;;;;4.33;3.93;;;0.30;99.90;;;0.13;81.16;99601.81;4892718;28;24516;-68
2023/12/02 04:09:59;;;;;;;4.20;3.90;;;0.30;99.90;;;0.14;81.07;99593.19;4888301;28;25045;-68
2023/12/02 04:12:21;;;;;;;4.40;4.00;;;0.30;99.90;;;0.26;80.92;99595.19;4892283;28;24574;-68
2023/12/02 04:14:43;;;;;;;4.20;3.80;;;0.30;99.90;;;0.20;80.49;99604.00;4888834;28;25186;-68
2023/12/02 04:17:05;;;;;;;4.13;3.72;;;0.30;99.90;;;0.23;80.29;99570.53;4890487;28;25372;-69
2023/12/02 04:19:27;;;;;;;3.70;3.30;;;0.30;99.90;;;0.32;80.14;99593.16;4888829;28;25134;-67
2023/12/02 04:21:49;;;;;;;4.43;4.13;;;0.40;99.90;;;0.23;79.70;99567.13;4889942;28;24512;-68
2023/12/02 04:24:11;;;;;;;4.18;3.63;;;0.40;99.90;;;0.17;79.98;99609.28;4891372;28;24431;-67
2023/12/02 04:26:33;;;;;;;4.90;3.50;;;0.30;99.90;;;0.22;80.71;99611.63;4887316;28;25077;-68
2023/12/02 04:28:55;;;;;;;4.40;4.00;;;0.30;99.90;;;0.27;80.65;99615.66;4878402;28;24489;-67
2023/12/02 04:31:17;;;;;;;4.40;4.00;;;0.40;99.90;;;0.13;80.63;99620.56;4883897;28;24458;-68
2023/12/02 04:33:39;;;;;;;4.03;3.70;;;0.30;99.90;;;0.12;81.12;99623.22;4891195;28;24493;-67
2023/12/02 04:36:01;;;;;;;4.38;3.97;;;0.30;99.90;;;0.12;80.78;99625.78;4894459;28;24932;-68
2023/12/02 04:38:23;;;;;;;4.00;3.70;;;0.20;99.90;;;0.03;81.20;99631.31;4895320;28;24422;-68
2023/12/02 04:40:45;;;;;;;4.70;4.30;;;0.30;99.90;;;0.11;80.63;99639.53;4894102;28;25074;-68
2023/12/02 04:43:07;;;;;;;4.78;4.28;;;0.30;99.90;;;0.18;80.48;99639.16;4893599;28;24819;-68
2023/12/02 04:45:30;;;;;;;4.70;4.30;;;0.30;99.90;;;0.29;80.64;99638.69;4894647;28;24853;-67
2023/12/02 04:47:53;;;;;;;4.28;3.88;;;0.40;99.90;;;0.19;80.75;99645.13;4894509;28;24458;-67
2023/12/02 04:50:15;;;;;;;4.90;4.50;;;0.40;99.90;;;0.17;81.24;99646.94;4893440;28;24518;-67
2023/12/02 04:52:37;;;;;;;4.63;4.22;;;0.30;99.90;;;0.21;81.31;99658.72;4896741;28;24483;-68
2023/12/02 04:54:59;;;;;;;4.97;4.47;;;0.30;99.90;;;0.27;80.78;99653.31;4894187;28;24533;-68
2023/12/02 04:57:21;;;;;;;4.20;3.50;;;0.40;99.90;;;0.22;81.18;99665.50;4888414;28;25224;-70
2023/12/02 04:59:43;;;;;;;5.10;3.90;;;0.30;99.90;;;0.23;81.19;99665.44;4888353;28;24525;-67
2023/12/02 05:02:06;;;;;;;4.40;4.00;;;0.30;99.90;;;0.27;80.74;99668.69;4884998;28;24577;-67
2023/12/02 05:04:28;;;;;;;3.45;3.00;;;0.40;99.90;;;0.29;80.97;99684.84;4879572;28;24447;-67
2023/12/02 05:06:51;;;;;;;4.50;4.20;;;0.40;99.90;;;0.30;80.64;99674.50;4889885;28;24430;-67
2023/12/02 05:09:16;;;;;;;4.25;3.90;;;0.40;99.90;;;0.31;80.57;99673.63;4893159;28;24450;-67
2023/12/02 05:11:38;;;;;;;4.30;3.90;;;0.40;99.90;;;0.35;80.40;99684.56;4896030;28;24433;-67
2023/12/02 05:14:00;;;;;;;4.50;4.10;;;0.40;99.90;;;0.30;80.49;99687.34;4893727;28;25021;-68
2023/12/02 05:16:22;;;;;;;4.00;3.60;;;0.40;99.90;;;0.28;80.71;99689.16;4886471;28;24441;-68
2023/12/02 05:18:44;;;;;;;4.22;3.78;;;0.40;99.90;;;0.26;80.07;99700.38;4888381;28;25364;-66
2023/12/02 05:21:09;;;;;;;4.75;4.35;;;0.40;99.90;;;0.20;80.51;99695.53;4885352;28;24462;-70
2023/12/02 05:23:31;;;;;;;4.10;3.70;;;0.40;99.90;;;0.23;80.17;99713.34;4896419;28;24435;-68
2023/12/02 05:25:53;;;;;;;4.40;4.10;;;0.40;99.90;;;0.24;80.50;99708.13;4886517;28;24458;-68
2023/12/02 05:28:15;;;;;;;3.97;3.67;;;0.30;99.90;;;0.20;80.61;99722.00;4892120;28;24438;-67
2023/12/02 05:30:38;;;;;;;4.35;3.95;;;0.40;99.90;;;0.18;80.70;99726.38;4882400;28;24533;-68
2023/12/02 05:33:01;;;;;;;4.18;3.78;;;0.40;99.90;;;0.25;80.43;99730.34;4895535;28;24501;-68
2023/12/02 05:35:23;;;;;;;3.72;3.42;;;0.40;99.90;;;0.35;79.92;99733.31;4874326;28;24537;-67
2023/12/02 05:37:45;;;;;;;3.70;3.40;;;0.40;99.90;;;0.33;80.29;99738.53;4895224;28;24430;-67
2023/12/02 05:40:10;;;;;;;4.40;4.00;;;0.40;99.90;;;0.32;80.18;99741.97;4894249;28;24480;-69
2023/12/02 05:42:32;;;;;;;4.10;3.70;;;0.40;99.90;;;0.38;79.94;99754.56;4879469;28;24439;-70
2023/12/02 05:44:54;;;;;;;4.07;3.78;;;0.50;99.90;;;0.37;80.13;99745.19;4879858;28;24876;-70
2023/12/02 05:47:16;;;;;;;4.38;3.97;;;0.50;99.90;;;0.28;79.84;99758.41;4884133;28;20777;-67
2023/12/02 05:49:41;;;;;;;3.60;3.30;;;0.50;99.90;;;0.30;79.81;99758.38;4894280;28;24502;-67
2023/12/02 05:52:03;;;;;;;3.90;3.60;;;0.40;99.90;;;0.37;80.00;99757.19;4893287;28;24497;-68
2023/12/02 05:54:25;;;;;;;3.35;3.05;;;0.50;99.90;;;0.46;79.69;99756.78;4892697;28;25057;-69
2023/12/02 05:56:47;;;;;;;3.80;3.50;;;0.50;99.90;;;0.46;79.71;99760.19;4895429;28;24526;-69
2023/12/02 05:59:09;;;;;;;3.63;3.33;;;0.60;99.90;;;0.43;79.54;99759.47;4891520;28;25057;-68
2023/12/02 06:01:31;;;;;;;3.72;3.47;;;0.50;99.90;;;0.39;79.67;99745.94;4893273;28;24447;-69
2023/12/02 06:03:53;;;;;;;3.20;3.00;;;0.60;99.90;;;0.40;79.42;99751.91;4894462;28;24477;-69
2023/12/02 06:06:16;;;;;;;4.22;3.60;;;0.50;99.90;;;0.50;79.76;99755.72;4892638;28;24469;-69
2023/12/02 06:08:38;;;;;;;3.13;2.92;;;0.50;99.90;;;0.41;79.24;99756.13;4895240;28;24429;-69
2023/12/02 06:11:02;;;;;;;2.75;2.55;;;0.50;99.90;;;0.46;79.04;99760.19;4890350;28;24795;-69
2023/12/02 06:13:23;;;;;;;3.10;2.90;;;0.60;99.90;;;0.34;79.11;99765.03;4891446;28;24566;-69
2023/12/02 06:15:45;;;;;;;3.10;2.90;;;0.50;99.90;;;0.33;79.47;99765.91;4884747;28;24493;-69
2023/12/02 06:18:07;;;;;;;2.90;2.70;;;0.50;99.90;;;0.35;79.07;99761.53;4873517;28;24485;-68
2023/12/02 06:20:30;;;;;;;3.10;2.90;;;0.50;99.90;;;0.39;78.97;99774.19;4886728;28;24447;-68
2023/12/02 06:22:55;;;;;;;2.88;2.67;;;0.50;99.90;;;0.32;79.08;99782.22;4894404;28;24552;-68
2023/12/02 06:25:19;;;;;;;3.30;3.10;;;0.40;99.90;;;0.32;79.62;99777.91;4890566;28;25051;-69
2023/12/02 06:27:42;;;;;;;3.13;2.92;;;0.40;99.90;;;0.26;79.00;99785.03;4889840;28;24463;-66
2023/12/02 06:30:10;;;;;;;3.10;2.90;;;0.40;99.90;;;0.35;79.01;99794.91;4890677;28;24503;-70
2023/12/02 06:32:41;;;;;;;2.95;2.65;;;0.40;99.90;;;0.43;78.62;99790.25;4885898;28;24466;-70
2023/12/02 06:35:04;;;;;;;2.70;2.60;;;0.50;99.90;;;0.29;78.91;99800.31;4891265;28;24891;-69
2023/12/02 06:37:26;;;;;;;3.00;2.90;;;0.40;99.90;;;0.36;78.93;99804.28;4892394;28;24446;-69
2023/12/02 06:39:48;;;;;;;3.20;3.00;;;0.50;99.90;;;0.36;78.12;99802.53;4890805;28;24979;-71
2023/12/02 06:42:10;;;;;;;3.00;2.90;;;0.50;99.90;;;0.26;77.89;99808.97;4885368;28;24518;-68
2023/12/02 06:44:32;;;;;;;3.30;3.10;;;0.50;99.90;;;0.26;78.54;99802.97;4879866;28;24530;-69
2023/12/02 06:46:54;;;;;;;3.47;3.28;;;0.40;99.90;;;0.22;78.71;99812.56;4885561;28;24441;-69
2023/12/02 06:49:16;;;;;;;3.47;3.28;;;0.40;99.90;;;0.26;79.09;99808.13;4888145;28;24543;-67
2023/12/02 06:51:38;;;;;;;3.50;3.20;;;0.40;99.90;;;0.28;79.35;99825.13;4880494;28;24526;-69
2023/12/02 06:54:00;;;;;;;3.80;3.50;;;0.30;99.90;;;0.30;79.23;99817.38;4888823;28;24459;-70
2023/12/02 06:56:28;;;;;;;2.80;2.60;;;0.40;99.90;;;0.31;79.19;99824.16;4885529;28;24419;-68
2023/12/02 06:58:51;;;;;;;4.15;3.83;;;0.40;99.90;;;0.39;79.42;99822.09;4892000;28;24523;-68
2023/12/02 07:01:23;;;;;;;3.40;3.10;;;0.50;99.90;;;0.42;79.44;99830.50;4891673;28;24521;-69
2023/12/02 07:03:45;;;;;;;3.70;3.40;;;0.50;99.90;;;0.39;79.17;99830.63;4893502;28;24445;-70
2023/12/02 07:06:10;;;;;;;4.00;3.70;;;0.50;99.90;;;0.33;79.41;99824.91;4889132;28;25041;-70
2023/12/02 07:08:35;;;;;;;4.00;3.70;;;0.50;99.90;;;0.38;79.12;99833.28;4893566;28;24488;-68
2023/12/02 07:10:59;;;;;;;3.58;3.38;;;0.50;99.90;;;0.31;79.05;99831.84;4891560;28;20773;-69
2023/12/02 07:13:21;;;;;;;3.70;3.37;;;0.50;99.90;;;0.34;79.14;99836.88;4893386;28;24878;-69
2023/12/02 07:15:43;;;;;;;3.60;3.40;;;0.50;99.90;;;0.29;79.08;99847.31;4895304;28;24565;-70
2023/12/02 07:18:08;;;;;;;4.15;3.85;;;0.50;99.90;;;0.37;78.72;99844.41;4889323;28;24519;-68
2023/12/02 07:20:30;;;;;;;3.38;3.13;;;0.50;99.90;;;0.35;78.95;99849.63;4900655;28;24427;-70
2023/12/02 07:22:52;;;;;;;3.60;3.40;;;0.50;99.90;;;0.36;79.41;99855.59;4901720;28;24561;-69
2023/12/02 07:25:17;;;;;;;4.55;3.88;;;0.50;99.90;;;0.37;79.36;99862.38;4900450;28;24496;-68
2023/12/02 07:27:39;;;;;;;4.15;3.78;;;0.50;99.90;;;0.31;79.41;99866.03;4898403;28;24534;-67
2023/12/02 07:30:01;;;;;;;3.88;3.67;;;0.40;99.90;;;0.38;79.10;99874.31;4884621;28;24562;-69
2023/12/02 07:32:26;;;;;;;3.33;3.13;;;0.40;99.90;;;0.35;78.93;99880.41;4886409;28;24542;-70
2023/12/02 07:34:50;;;;;;;3.17;2.97;;;0.40;99.90;;;0.31;78.60;99872.91;4884954;28;24450;-68
2023/12/02 07:37:15;;;;;;;3.40;3.20;;;0.40;99.90;;;0.34;78.01;99872.78;4890574;28;24484;-68
2023/12/02 07:39:38;;;;;;;3.33;3.13;;;0.50;99.90;;;0.31;77.78;99878.88;4887166;28;24419;-70
2023/12/02 07:42:00;;;;;;;3.22;3.03;;;0.50;99.90;;;0.33;77.85;99894.19;4891742;28;24423;-68
2023/12/02 07:44:22;;;;;;;3.60;3.40;;;0.50;99.90;;;0.29;77.86;99890.09;4885558;28;24516;-69
2023/12/02 07:46:43;;;;;;;3.30;3.10;;;0.40;99.90;;;0.20;78.19;99890.47;4882400;28;24515;-70
2023/12/02 07:49:05;;;;;;;2.50;2.30;;;0.40;99.90;;;0.22;78.21;99898.94;4891185;28;24464;-69
2023/12/02 07:51:27;;;;;;;3.90;3.60;;;0.30;99.90;;;0.18;78.39;99908.50;4875981;28;24447;-68
2023/12/02 07:53:49;;;;;;;3.10;2.90;;;0.30;99.90;;;0.35;77.83;99910.38;4881579;28;24487;-68
2023/12/02 07:56:11;;;;;;;3.67;3.38;;;0.40;99.90;;;0.39;77.89;99907.59;4881663;28;24439;-68
2023/12/02 07:58:34;;;;;;;4.00;3.70;;;0.40;99.90;;;0.30;79.07;99902.84;4885738;28;24423;-67
2023/12/02 08:00:55;;;;;;;3.90;3.60;;;0.50;99.90;;;0.39;79.04;99905.03;4889516;28;24542;-67
2023/12/02 08:03:18;;;;;;;3.40;3.20;;;0.50;99.90;;;0.41;78.20;99908.38;4892315;28;24427;-68
2023/12/02 08:05:39;;;;;;;4.00;3.80;;;0.50;99.90;;;0.44;78.45;99900.56;4888042;28;24966;-67
2023/12/02 08:08:04;;;;;;;4.10;3.80;;;0.50;99.90;;;0.40;78.44;99913.59;4892522;28;24894;-70
2023/12/02 08:10:26;;;;;;;4.30;4.00;;;0.50;99.90;;;0.34;78.90;99922.34;4892811;28;25324;-69
2023/12/02 08:12:48;;;;;;;4.30;4.00;;;0.50;99.90;;;0.36;78.74;99922.31;4899272;28;24807;-72
2023/12/02 08:15:16;;;;;;;4.45;3.70;;;0.50;99.90;;;0.40;79.04;99928.97;4895117;28;24504;-70
2023/12/02 08:17:40;;;;;;;4.50;4.10;;;0.50;99.90;;;0.28;78.93;99929.50;4894755;28;24510;-69
2023/12/02 08:20:05;;;;;;;3.40;3.20;;;0.40;99.90;;;0.28;78.78;99935.44;4888858;28;24447;-70
2023/12/02 08:22:28;;;;;;;4.20;3.90;;;0.40;99.90;;;0.31;80.38;99944.75;4882899;28;25001;-70
2023/12/02 08:24:52;;;;;;;3.50;3.20;;;0.40;99.90;;;0.31;79.74;99952.44;4886149;28;24431;-70
2023/12/02 08:27:14;;;;;;;3.80;3.50;;;0.40;99.90;;;0.40;79.25;99941.81;4872273;28;24448;-69
2023/12/02 08:29:36;;;;;;;4.15;3.75;;;0.40;99.90;;;0.51;79.57;99944.78;4892632;28;24427;-70
2023/12/02 08:32:00;;;;;;;4.03;3.72;;;0.50;99.90;;;0.58;79.59;99939.31;4884779;28;24509;-73
2023/12/02 08:34:25;;;;;;;4.55;4.15;;;0.60;99.90;;;0.61;79.52;99946.03;4877185;28;24447;-70
2023/12/02 08:36:47;;;;;;;4.70;4.30;;;0.60;99.90;;;0.57;79.49;99942.78;4886871;28;24540;-69
2023/12/02 08:39:09;;;;;;;3.90;3.60;;;0.60;99.90;;;0.59;79.16;99950.41;4878596;28;24514;-70
2023/12/02 08:41:31;;;;;;;4.57;3.80;;;0.70;99.90;;;0.65;79.06;99960.41;4888652;28;24584;-68
2023/12/02 08:43:53;;;;;;;3.90;3.60;;;0.70;99.90;;;0.68;78.84;99955.16;4882139;28;24431;-67
2023/12/02 08:46:19;;;;;;;4.20;3.90;;;0.70;99.90;;;0.68;78.75;99960.31;4879481;28;24883;-68
2023/12/02 08:48:41;;;;;;;3.35;3.15;;;0.70;99.90;;;0.49;78.74;99969.66;4877645;28;24542;-70
2023/12/02 08:51:03;;;;;;;3.70;3.50;;;0.70;99.90;;;0.41;79.01;99974.25;4889697;28;24544;-70
2023/12/02 08:53:25;;;;;;;3.60;3.40;;;0.60;99.90;;;0.41;78.58;99974.25;4873307;28;24446;-70
2023/12/02 08:55:47;;;;;;;4.10;3.80;;;0.50;99.90;;;0.41;78.58;99980.22;4882378;28;24609;-69
2023/12/02 08:58:09;;;;;;;3.20;3.00;;;0.50;99.90;;;0.47;77.98;99984.31;4883574;28;24470;-69
2023/12/02 09:00:32;;;;;;;3.03;2.90;;;0.50;99.90;;;0.52;77.48;99987.50;4890925;28;24488;-66
2023/12/02 09:02:53;;;;;;;3.50;3.20;;;0.60;99.90;;;0.58;77.60;99994.94;4889986;28;24485;-70
2023/12/02 09:05:16;;;;;;;3.50;3.20;;;0.60;99.90;;;0.59;77.91;99996.63;4891659;28;24458;-68
2023/12/02 09:07:38;;;;;;;4.00;3.70;;;0.60;99.90;;;0.50;78.23;99997.81;4891602;28;25409;-69
2023/12/02 09:10:00;;;;;;;3.60;3.40;;;0.60;99.90;;;0.61;77.45;100005.09;4889354;28;25015;-67
2023/12/02 09:12:22;;;;;;;3.45;3.25;;;0.60;99.90;;;0.66;77.22;100013.44;4830218;28;1802480;-70
2023/12/02 09:14:44;;;;;;;3.13;2.92;;;0.70;99.90;;;0.64;77.15;100015.22;4892397;28;24828;-70
2023/12/02 09:17:40;;;;;;;3.30;3.10;;;0.70;99.90;;;0.54;77.44;100024.19;4878692;28;25008;-68
2023/12/02 09:20:03;;;;;;;3.72;3.42;;;0.70;99.90;;;0.45;77.28;100012.56;4881434;28;24847;-68
2023/12/02 09:22:46;;;;;;;2.90;2.70;;;0.60;99.90;;;0.38;77.96;100026.56;4891910;28;24427;-68
2023/12/02 09:25:25;;;;;;;3.40;3.20;;;0.60;99.90;;;0.24;78.36;100025.41;4907779;28;24442;-68
2023/12/02 09:28:10;;;;;;;3.80;3.60;;;0.50;99.90;;;0.37;78.18;100044.56;4886379;28;24435;-68
2023/12/02 09:30:39;;;;;;;3.60;3.40;;;0.40;99.90;;;0.34;77.72;100052.41;4885154;28;24480;-68
2023/12/02 09:33:04;;;;;;;3.35;3.15;;;0.50;99.90;;;0.35;77.09;100059.19;4889854;28;24776;-69
2023/12/02 09:35:27;;;;;;;3.75;3.45;;;0.50;99.90;;;0.39;76.84;100053.88;4886527;28;24447;-68
2023/12/02 09:37:52;;;;;;;3.50;3.30;;;0.50;99.90;;;0.35;77.42;100070.28;4882500;28;24435;-68
2023/12/02 09:40:20;;;;;;;2.70;2.60;;;0.50;99.90;;;0.33;77.62;100059.25;4882652;28;24860;-69
2023/12/02 09:42:55;;;;;;;3.55;3.25;;;0.40;99.90;;;0.36;77.30;100066.81;4876558;28;25010;-68
2023/12/02 09:45:21;;;;;;;3.50;3.20;;;0.40;99.90;;;0.36;77.12;100064.25;4883292;28;24521;-70
2023/12/02 09:47:52;;;;;;;5.13;4.47;;;0.40;99.90;;;0.40;77.14;100065.00;4888999;28;24529;-70
2023/12/02 09:50:24;;;;;;;8.25;5.85;;;0.40;99.90;;;0.45;76.41;100071.59;4890946;28;24456;-68
2023/12/02 09:53:07;;;;;;;4.93;4.45;;;0.50;99.90;;;0.33;76.14;100071.25;4890501;28;24456;-70
2023/12/02 09:55:37;;;;;;;4.63;4.10;;;0.50;99.90;;;0.45;75.52;100068.19;4889629;28;24521;-70
2023/12/02 09:58:30;;;;;;;4.00;3.60;;;0.50;99.90;;;0.50;75.23;100071.41;4879750;28;25007;-70
2023/12/02 10:01:56;;;;;;;3.75;3.50;;;0.60;99.90;;;0.49;75.28;100075.72;4873139;28;24426;-70
2023/12/02 10:05:04;;;;;;;3.90;3.60;;;0.60;99.90;;;0.55;75.23;100067.78;4875327;28;24504;-69
2023/12/02 10:07:41;;;;;;;3.50;3.20;;;0.60;99.90;;;0.58;74.76;100077.06;4881317;28;24453;-69
2023/12/02 10:10:09;;;;;;;3.78;3.38;;;0.60;99.90;;;0.68;74.98;100078.41;4880937;28;25109;-69
2023/12/02 10:13:15;;;;;;;3.58;3.38;;;0.70;99.90;;;0.81;74.60;100089.81;4892186;28;24979;-69
2023/12/02 10:15:41;;;;;;;3.50;3.00;;;0.80;99.90;;;0.74;74.13;100084.13;4883764;28;24451;-68